Aérodrome :
LOGIN :

S'inscrire | Disclaimer

   EN    FR    IT 

 










Légende :    VFR   VFR Marginal   IFR   IFR Intensif   IFR Très Intensif
Visi : 
Plafond : 
>= 8 km
>= 3000ft
5 à 8 km
1000 à 3000 ft
1500m à 5 km
500 à 1000 ft
800 à 1500m
200 à 500 ft
< 800m
< 200 ft
Symboles :   Orages  Brouillard  Fortes neiges  Fortes précipitations  Vent > 20 kt
SIGMETs :   Divers  Orages  Givrage  Turbulence  Onde Orograph.  Cendres Volcan.






- Altitude de l'aérodrome : 228 ft
- Code IATA : OPO


LPPR - Porto Fr. Sa Carneiro

DERNIER METAR :
  • 270800Z 18010KT 5000 -DZ BR SCT004 OVC008 18/18 Q1022

METARs EXPIRÉS :
  • 270730Z 18010KT 4000 -DZ BR SCT005 BKN009 18/17 Q1022
  • 270700Z 18010KT 7000 -DZ SCT007 BKN010 18/18 Q1022
  • 270630Z 16011KT 8000 -DZ FEW006 BKN010 BKN020 19/18 Q1021
  • 270600Z 18010KT 9999 FEW008 BKN010 19/17 Q1021
  • 270530Z 18010KT 9999 BKN008 BKN010 19/17 Q1021

TAF TAF LPPR
Valide du 27 à 06h jusqu'au 28 à 06h UTC


270500Z 2706/2806 18010KT 9999 SCT008 BKN015
TEMPO 2706/2710 3000 -RADZ BR SCT002 BKN004
BECMG 2710/2712 26007KT SCT012 SCT035
BECMG 2712/2715 31008KT FEW025
BECMG 2722/2724 VRB02KT FEW012



MET'MAP, la Météo Aéronautique d'un coup d'oeil ! - Copyright ORBIFLY Décembre 2007 - Disclaimer

ORBIFLY MET'MAP TEAM :

Programmation & Développement : Alexandra Zaïnal
Sur une idée originale de : Baudouin d'Aumeries
Assistance à la programmation : Marc-Olivier Méhu
Soutien technique & logistique : Manuel Goepfert

Contact : metmap@orbifly.com




SOURCES & CREDITS :

   NOAA